CXLUK SABE-SUMU
Flight info
| Callsign | CXLUK |
|---|---|
| Flight time | 0h 29m |
| Altitude | 21000 |
| Route | DORVO8 DORVO A305 TOKAM |
| Aircraft | PC24/M-SBDGIRWY/LB2 |
Departure
| Time | 2026-04-26 20:09 |
|---|---|
| Airport | Aeroparque Jorge Newbery (SABE) |
Arrival
| Time | 2026-04-26 20:39 |
|---|---|
| Airport | Carrasco General Cesáreo L. Berisso International Airport (SUMU) |
| Time | Latitude | Longitude | Altitude | Speed | Heading |
|---|---|---|---|---|---|
| 2026-04-26 19:59 | -34.56239 | -58.41328 | 25 ft | 0 kts | 214° |
| 2026-04-26 20:06 | -34.56248 | -58.41335 | 24 ft | 7 kts | 208° |
| 2026-04-26 20:06 | -34.56301 | -58.41291 | 25 ft | 13 kts | 122° |
| 2026-04-26 20:06 | -34.56358 | -58.41183 | 24 ft | 18 kts | 124° |
| 2026-04-26 20:06 | -34.56436 | -58.41045 | 23 ft | 22 kts | 124° |
| 2026-04-26 20:07 | -34.56513 | -58.40905 | 22 ft | 13 kts | 121° |
| 2026-04-26 20:07 | -34.56496 | -58.40814 | 22 ft | 0 kts | 66° |
| 2026-04-26 20:08 | -34.56473 | -58.40753 | 22 ft | 18 kts | 65° |
| 2026-04-26 20:08 | -34.56438 | -58.40690 | 20 ft | 9 kts | 21° |
| 2026-04-26 20:08 | -34.56372 | -58.40771 | 21 ft | 39 kts | 303° |
| 2026-04-26 20:09 | -34.56025 | -58.41396 | 30 ft | 137 kts | 303° |
| 2026-04-26 20:09 | -34.55384 | -58.42545 | 463 ft | 186 kts | 304° |
| 2026-04-26 20:09 | -34.54601 | -58.43818 | 1813 ft | 189 kts | 317° |
| 2026-04-26 20:09 | -34.53416 | -58.44449 | 3234 ft | 203 kts | 350° |
| 2026-04-26 20:10 | -34.51873 | -58.44213 | 4037 ft | 237 kts | 31° |
| 2026-04-26 20:10 | -34.50869 | -58.42834 | 5874 ft | 209 kts | 56° |
| 2026-04-26 20:10 | -34.50214 | -58.41234 | 7094 ft | 218 kts | 73° |
| 2026-04-26 20:10 | -34.49983 | -58.39410 | 8286 ft | 221 kts | 90° |
| 2026-04-26 20:11 | -34.50227 | -58.37561 | 9437 ft | 225 kts | 108° |
| 2026-04-26 20:11 | -34.50759 | -58.35753 | 10554 ft | 230 kts | 109° |
| 2026-04-26 20:11 | -34.51259 | -58.33900 | 11677 ft | 234 kts | 107° |
| 2026-04-26 20:12 | -34.52216 | -58.30058 | 13871 ft | 242 kts | 107° |
| 2026-04-26 20:12 | -34.52713 | -58.28089 | 14948 ft | 246 kts | 107° |
| 2026-04-26 20:12 | -34.53219 | -58.26085 | 16007 ft | 251 kts | 107° |
| 2026-04-26 20:12 | -34.53733 | -58.24046 | 17033 ft | 255 kts | 107° |
| 2026-04-26 20:13 | -34.54253 | -58.21972 | 18015 ft | 259 kts | 107° |
| 2026-04-26 20:13 | -34.54782 | -58.19860 | 18988 ft | 264 kts | 107° |
| 2026-04-26 20:13 | -34.55318 | -58.17712 | 19915 ft | 268 kts | 107° |
| 2026-04-26 20:13 | -34.55867 | -58.15522 | 20707 ft | 278 kts | 107° |
| 2026-04-26 20:14 | -34.56448 | -58.13194 | 21091 ft | 302 kts | 107° |
| 2026-04-26 20:14 | -34.57089 | -58.10625 | 21133 ft | 334 kts | 107° |
| 2026-04-26 20:14 | -34.57784 | -58.07837 | 21132 ft | 364 kts | 107° |
| 2026-04-26 20:14 | -34.58531 | -58.04836 | 21124 ft | 376 kts | 107° |
| 2026-04-26 20:15 | -34.59292 | -58.01773 | 21128 ft | 381 kts | 107° |
| 2026-04-26 20:15 | -34.60060 | -57.98686 | 21123 ft | 383 kts | 107° |
| 2026-04-26 20:15 | -34.60828 | -57.95585 | 21127 ft | 384 kts | 107° |
| 2026-04-26 20:15 | -34.61599 | -57.92480 | 21126 ft | 384 kts | 107° |
| 2026-04-26 20:16 | -34.62365 | -57.89378 | 21126 ft | 384 kts | 107° |
| 2026-04-26 20:16 | -34.63134 | -57.86272 | 21124 ft | 384 kts | 107° |
| 2026-04-26 20:16 | -34.63904 | -57.83169 | 21125 ft | 383 kts | 107° |
| 2026-04-26 20:16 | -34.64666 | -57.80066 | 21124 ft | 383 kts | 107° |
| 2026-04-26 20:17 | -34.65429 | -57.76960 | 21124 ft | 383 kts | 107° |
| 2026-04-26 20:17 | -34.66192 | -57.73863 | 21125 ft | 383 kts | 107° |
| 2026-04-26 20:17 | -34.66957 | -57.70758 | 21125 ft | 383 kts | 107° |
| 2026-04-26 20:17 | -34.67461 | -57.68699 | 21125 ft | 383 kts | 107° |
| 2026-04-26 20:18 | -34.68467 | -57.64596 | 21125 ft | 383 kts | 107° |
| 2026-04-26 20:18 | -34.69226 | -57.61493 | 21123 ft | 383 kts | 107° |
| 2026-04-26 20:18 | -34.69984 | -57.58392 | 21125 ft | 383 kts | 107° |
| 2026-04-26 20:18 | -34.70743 | -57.55290 | 21125 ft | 383 kts | 107° |
| 2026-04-26 20:19 | -34.71480 | -57.52187 | 21122 ft | 382 kts | 104° |
| 2026-04-26 20:19 | -34.71839 | -57.48986 | 21114 ft | 381 kts | 95° |
| 2026-04-26 20:19 | -34.72096 | -57.45770 | 21118 ft | 384 kts | 96° |
| 2026-04-26 20:19 | -34.72391 | -57.42543 | 21120 ft | 384 kts | 96° |
| 2026-04-26 20:20 | -34.72666 | -57.39310 | 21031 ft | 385 kts | 96° |
| 2026-04-26 20:20 | -34.72929 | -57.36096 | 21007 ft | 381 kts | 96° |
| 2026-04-26 20:20 | -34.73192 | -57.32884 | 21007 ft | 383 kts | 96° |
| 2026-04-26 20:20 | -34.73461 | -57.29661 | 21008 ft | 383 kts | 96° |
| 2026-04-26 20:21 | -34.73728 | -57.26440 | 21009 ft | 383 kts | 96° |
| 2026-04-26 20:21 | -34.73995 | -57.23210 | 21009 ft | 383 kts | 96° |
| 2026-04-26 20:21 | -34.74098 | -57.19979 | 21001 ft | 383 kts | 87° |
| 2026-04-26 20:21 | -34.73812 | -57.16763 | 21000 ft | 382 kts | 82° |
| 2026-04-26 20:22 | -34.73553 | -57.14649 | 21001 ft | 382 kts | 81° |
| 2026-04-26 20:22 | -34.73143 | -57.10294 | 21267 ft | 409 kts | 85° |
| 2026-04-26 20:22 | -34.73035 | -57.07936 | 21166 ft | 431 kts | 86° |
| 2026-04-26 20:22 | -34.72860 | -57.04188 | 21054 ft | 460 kts | 84° |
| 2026-04-26 20:23 | -34.72567 | -57.00195 | 20966 ft | 485 kts | 83° |
| 2026-04-26 20:23 | -34.72240 | -56.96073 | 20955 ft | 494 kts | 84° |
| 2026-04-26 20:23 | -34.71971 | -56.91916 | 20854 ft | 492 kts | 85° |
| 2026-04-26 20:23 | -34.71629 | -56.86417 | 20854 ft | 493 kts | 84° |
| 2026-04-26 20:24 | -34.71435 | -56.83657 | 20251 ft | 481 kts | 84° |
| 2026-04-26 20:24 | -34.71048 | -56.78362 | 18993 ft | 470 kts | 84° |
| 2026-04-26 20:24 | -34.70863 | -56.75693 | 18578 ft | 468 kts | 84° |
| 2026-04-26 20:24 | -34.70597 | -56.71730 | 17974 ft | 471 kts | 84° |
| 2026-04-26 20:25 | -34.70323 | -56.67805 | 17278 ft | 460 kts | 84° |
| 2026-04-26 20:25 | -34.70143 | -56.65261 | 16821 ft | 451 kts | 84° |
| 2026-04-26 20:25 | -34.69793 | -56.60348 | 15915 ft | 431 kts | 84° |
| 2026-04-26 20:25 | -34.69542 | -56.56779 | 15244 ft | 418 kts | 84° |
| 2026-04-26 20:26 | -34.69295 | -56.53304 | 14602 ft | 408 kts | 84° |
| 2026-04-26 20:26 | -34.69048 | -56.49873 | 13961 ft | 396 kts | 84° |
| 2026-04-26 20:26 | -34.68814 | -56.46588 | 13302 ft | 384 kts | 84° |
| 2026-04-26 20:26 | -34.68585 | -56.43428 | 12608 ft | 377 kts | 85° |
| 2026-04-26 20:27 | -34.68363 | -56.40341 | 11914 ft | 357 kts | 85° |
| 2026-04-26 20:27 | -34.68149 | -56.37401 | 11233 ft | 342 kts | 85° |
| 2026-04-26 20:27 | -34.67942 | -56.34572 | 10563 ft | 331 kts | 85° |
| 2026-04-26 20:27 | -34.67741 | -56.31799 | 9916 ft | 328 kts | 85° |
| 2026-04-26 20:28 | -34.67540 | -56.29048 | 9230 ft | 327 kts | 85° |
| 2026-04-26 20:28 | -34.67337 | -56.26301 | 8541 ft | 326 kts | 85° |
| 2026-04-26 20:28 | -34.67136 | -56.23574 | 7843 ft | 323 kts | 85° |
| 2026-04-26 20:28 | -34.66938 | -56.20872 | 7177 ft | 319 kts | 85° |
| 2026-04-26 20:29 | -34.66742 | -56.18196 | 6530 ft | 316 kts | 85° |
| 2026-04-26 20:29 | -34.66540 | -56.15541 | 5872 ft | 316 kts | 85° |
| 2026-04-26 20:29 | -34.66343 | -56.12902 | 5200 ft | 311 kts | 85° |
| 2026-04-26 20:29 | -34.66149 | -56.10304 | 4537 ft | 305 kts | 85° |
| 2026-04-26 20:30 | -34.65960 | -56.07769 | 3851 ft | 298 kts | 86° |
| 2026-04-26 20:30 | -34.65773 | -56.05291 | 3266 ft | 290 kts | 86° |
| 2026-04-26 20:30 | -34.65592 | -56.02909 | 3000 ft | 280 kts | 86° |
| 2026-04-26 20:30 | -34.65412 | -56.00485 | 3014 ft | 291 kts | 85° |
| 2026-04-26 20:31 | -34.65227 | -55.98048 | 3000 ft | 297 kts | 85° |
| 2026-04-26 20:31 | -34.65085 | -55.95554 | 3001 ft | 294 kts | 94° |
| 2026-04-26 20:31 | -34.65477 | -55.93266 | 2989 ft | 267 kts | 115° |
| 2026-04-26 20:31 | -34.66286 | -55.91395 | 2982 ft | 234 kts | 134° |
| 2026-04-26 20:32 | -34.67305 | -55.90029 | 2979 ft | 203 kts | 150° |
| 2026-04-26 20:32 | -34.68368 | -55.89057 | 2979 ft | 183 kts | 157° |
| 2026-04-26 20:32 | -34.69394 | -55.88139 | 2980 ft | 183 kts | 156° |
| 2026-04-26 20:32 | -34.70454 | -55.87379 | 2989 ft | 170 kts | 173° |
| 2026-04-26 20:33 | -34.71574 | -55.87055 | 2989 ft | 162 kts | 188° |
| 2026-04-26 20:33 | -34.72656 | -55.87096 | 3026 ft | 134 kts | 202° |
| 2026-04-26 20:33 | -34.73463 | -55.87360 | 2974 ft | 112 kts | 215° |
| 2026-04-26 20:33 | -34.74116 | -55.87737 | 2381 ft | 105 kts | 224° |
| 2026-04-26 20:34 | -34.74703 | -55.88267 | 1783 ft | 100 kts | 231° |
| 2026-04-26 20:34 | -34.75163 | -55.88853 | 1673 ft | 96 kts | 238° |
| 2026-04-26 20:34 | -34.75599 | -55.89584 | 1729 ft | 119 kts | 240° |
| 2026-04-26 20:34 | -34.76060 | -55.90322 | 1698 ft | 105 kts | 240° |
| 2026-04-26 20:35 | -34.76492 | -55.91032 | 1701 ft | 103 kts | 240° |
| 2026-04-26 20:35 | -34.76918 | -55.91729 | 1698 ft | 102 kts | 240° |
| 2026-04-26 20:35 | -34.77325 | -55.92393 | 1551 ft | 91 kts | 240° |
| 2026-04-26 20:35 | -34.77720 | -55.93043 | 1049 ft | 101 kts | 239° |
| 2026-04-26 20:36 | -34.78130 | -55.93718 | 1089 ft | 105 kts | 241° |
| 2026-04-26 20:36 | -34.78538 | -55.94449 | 1243 ft | 106 kts | 243° |
| 2026-04-26 20:36 | -34.79005 | -55.95156 | 1272 ft | 102 kts | 236° |
| 2026-04-26 20:36 | -34.79445 | -55.95779 | 1126 ft | 92 kts | 238° |
| 2026-04-26 20:37 | -34.79816 | -55.96397 | 991 ft | 93 kts | 243° |
| 2026-04-26 20:37 | -34.80197 | -55.97106 | 818 ft | 111 kts | 240° |
| 2026-04-26 20:37 | -34.80668 | -55.97872 | 802 ft | 113 kts | 238° |
| 2026-04-26 20:37 | -34.81176 | -55.98664 | 661 ft | 122 kts | 238° |
| 2026-04-26 20:38 | -34.81673 | -55.99485 | 651 ft | 110 kts | 240° |
| 2026-04-26 20:38 | -34.82075 | -56.00165 | 389 ft | 89 kts | 237° |
| 2026-04-26 20:38 | -34.82473 | -56.00856 | 255 ft | 104 kts | 234° |
| 2026-04-26 20:38 | -34.82882 | -56.01494 | 93 ft | 84 kts | 239° |
| 2026-04-26 20:39 | -34.83100 | -56.01870 | 78 ft | 18 kts | 234° |
| 2026-04-26 20:39 | -34.83165 | -56.01962 | 73 ft | 1 kts | 217° |